createdAt,value
2019-04-05T00:01:49.134Z,40.60
2019-04-05T00:04:20.398Z,40.61
2019-04-05T00:06:52.199Z,40.56
2019-04-05T00:09:23.978Z,41.04
2019-04-05T00:11:55.459Z,40.87
2019-04-05T00:14:27.483Z,40.87
2019-04-05T00:16:59.002Z,40.71
2019-04-05T00:19:30.776Z,40.71
2019-04-05T00:22:02.482Z,41.02
2019-04-05T00:24:34.170Z,41.34
2019-04-05T00:27:05.826Z,40.50
2019-04-05T00:29:37.883Z,40.50
2019-04-05T00:32:09.981Z,40.99
2019-04-05T00:34:41.860Z,40.94
2019-04-05T00:37:14.659Z,41.13
2019-04-05T00:39:46.452Z,41.28
2019-04-05T00:42:18.435Z,41.42
2019-04-05T00:44:50.162Z,41.66
2019-04-05T00:47:21.717Z,41.68
2019-04-05T00:49:53.462Z,41.51
2019-04-05T00:52:25.142Z,41.93
2019-04-05T00:54:57.023Z,42.09
2019-04-05T00:57:28.721Z,42.39
2019-04-05T01:00:03.151Z,42.61
2019-04-05T01:02:38.542Z,42.79
2019-04-05T01:05:10.416Z,43.20
2019-04-05T01:07:42.199Z,42.89
2019-04-05T01:10:14.486Z,42.76
2019-04-05T01:12:48.207Z,42.92
2019-04-05T01:15:20.135Z,42.92
2019-04-05T01:17:51.790Z,42.99
2019-04-05T01:20:26.664Z,43.11
2019-04-05T01:23:00.632Z,43.19
2019-04-05T01:32:34.728Z,39.41
2019-04-05T01:35:06.804Z,39.63
2019-04-05T01:37:39.136Z,39.71
2019-04-05T01:40:11.288Z,39.46
2019-04-05T01:42:43.098Z,39.46
2019-04-05T01:45:14.970Z,39.69
2019-04-05T01:47:46.550Z,39.73
2019-04-05T01:50:18.296Z,40.60
2019-04-05T01:52:50.478Z,40.60
2019-04-05T01:55:22.042Z,39.80
2019-04-05T01:57:53.543Z,39.06
2019-04-05T02:00:25.164Z,39.06
2019-04-05T02:02:57.450Z,39.21
2019-04-05T02:05:29.382Z,38.97
2019-04-05T02:08:01.064Z,38.70
2019-04-05T02:10:33.359Z,38.74
2019-04-05T02:13:05.114Z,38.74
2019-04-05T02:15:38.307Z,39.11
2019-04-05T02:18:10.006Z,37.87
2019-04-05T02:20:41.650Z,37.87
2019-04-05T02:23:13.149Z,37.59
2019-04-05T02:25:44.775Z,36.42
2019-04-05T02:28:16.673Z,35.48
2019-04-05T02:30:48.533Z,35.42
2019-04-05T02:33:20.825Z,33.75
2019-04-05T02:35:52.501Z,34.19
2019-04-05T02:38:24.637Z,33.71
2019-04-05T02:40:58.744Z,33.71
2019-04-05T02:43:33.593Z,33.84
2019-04-05T02:46:22.154Z,33.18
2019-04-05T02:48:43.042Z,32.89
2019-04-05T02:51:17.867Z,32.84
2019-04-05T02:53:50.719Z,32.93
2019-04-05T02:56:23.687Z,32.77
2019-04-05T02:58:56.109Z,32.69
2019-04-05T03:01:28.728Z,31.99
2019-04-05T03:04:00.773Z,31.99
2019-04-05T03:06:32.791Z,38.62
2019-04-05T03:09:06.842Z,38.62
2019-04-05T03:11:41.197Z,40.68
2019-04-05T03:14:13.111Z,41.05
2019-04-05T03:16:47.789Z,41.05
2019-04-05T03:19:25.599Z,42.70
2019-04-05T03:22:02.626Z,42.11
2019-04-05T03:24:37.433Z,42.59
2019-04-05T03:27:20.624Z,40.99
2019-04-05T03:29:53.528Z,40.99
2019-04-05T03:32:26.603Z,36.98
2019-04-05T03:34:58.493Z,38.59
2019-04-05T03:37:30.540Z,35.99
2019-04-05T03:40:02.544Z,41.27
2019-04-05T03:42:34.356Z,40.89
2019-04-05T03:45:06.225Z,37.90
2019-04-05T03:47:38.220Z,37.73
2019-04-05T03:50:10.143Z,36.84
2019-04-05T03:52:41.794Z,35.41
2019-04-05T03:55:14.170Z,36.11
2019-04-05T03:57:46.075Z,32.86
2019-04-05T04:00:17.950Z,30.74
2019-04-05T04:02:50.784Z,34.03
2019-04-05T04:05:22.904Z,34.38
2019-04-05T04:07:55.353Z,33.49
2019-04-05T04:10:29.145Z,33.34
2019-04-05T04:13:01.055Z,32.89
2019-04-05T04:15:33.665Z,32.89
2019-04-05T04:18:05.899Z,32.95
2019-04-05T04:20:41.135Z,30.43
2019-04-05T04:23:13.564Z,32.75
2019-04-05T04:25:45.319Z,30.12
2019-04-05T04:28:16.994Z,29.57
2019-04-05T04:30:48.648Z,28.62
2019-04-05T04:33:20.723Z,30.09
2019-04-05T04:35:53.468Z,29.47
2019-04-05T04:38:26.072Z,29.53
2019-04-05T04:40:58.079Z,29.28
2019-04-05T04:43:29.740Z,30.78
2019-04-05T04:46:01.653Z,28.46
2019-04-05T04:48:34.068Z,30.19
2019-04-05T04:51:07.278Z,28.41
2019-04-05T04:53:41.318Z,27.21
2019-04-05T04:56:14.089Z,27.21
2019-04-05T04:58:46.927Z,26.95
2019-04-05T05:01:19.880Z,26.63
2019-04-05T05:03:52.719Z,26.58
2019-04-05T05:06:24.369Z,26.58
2019-04-05T05:08:55.975Z,26.22
2019-04-05T05:11:28.026Z,25.91
2019-04-05T05:13:59.832Z,25.91
2019-04-05T05:16:35.532Z,26.34
2019-04-05T05:19:08.307Z,26.34
2019-04-05T05:21:40.683Z,25.25
2019-04-05T05:24:13.553Z,24.43
2019-04-05T05:26:45.546Z,24.43
2019-04-05T05:29:17.252Z,25.41
2019-04-05T05:31:49.074Z,25.58
2019-04-05T05:34:20.879Z,24.69
2019-04-05T05:36:53.036Z,24.60
2019-04-05T05:39:25.234Z,24.84
2019-04-05T05:41:56.692Z,24.28
2019-04-05T05:44:28.429Z,24.54
2019-04-05T05:46:59.860Z,25.54
2019-04-05T05:49:31.595Z,25.54
2019-04-05T05:52:03.870Z,24.80
2019-04-05T05:54:36.439Z,24.95
2019-04-05T05:57:10.466Z,24.54
2019-04-05T05:59:42.099Z,23.70
2019-04-05T06:02:13.800Z,23.49
2019-04-05T06:04:45.749Z,23.07
2019-04-05T06:07:20.662Z,22.83
2019-04-05T06:09:54.089Z,22.83
2019-04-05T06:12:26.896Z,24.84
2019-04-05T06:14:58.734Z,24.84
2019-04-05T06:17:30.645Z,24.47
2019-04-05T06:20:02.361Z,21.91
2019-04-05T06:22:34.028Z,21.52
2019-04-05T06:25:05.940Z,22.25
2019-04-05T06:27:38.758Z,22.25
2019-04-05T06:30:11.324Z,22.68
2019-04-05T06:32:43.011Z,23.08
2019-04-05T06:35:14.845Z,21.42
2019-04-05T06:37:46.697Z,21.24
2019-04-05T06:40:18.839Z,21.24
2019-04-05T06:42:50.508Z,21.09
2019-04-05T06:45:22.548Z,21.08
2019-04-05T06:47:54.253Z,21.43
2019-04-05T06:50:25.699Z,21.69
2019-04-05T06:52:57.210Z,21.20
2019-04-05T06:55:28.755Z,20.84
2019-04-05T06:58:00.052Z,20.84
2019-04-05T07:00:32.032Z,21.74
2019-04-05T07:03:03.500Z,21.74
2019-04-05T07:05:34.916Z,21.97
2019-04-05T07:08:06.802Z,21.59
2019-04-05T07:10:39.594Z,21.10
2019-04-05T07:13:11.867Z,20.29
2019-04-05T07:15:43.637Z,20.29
2019-04-05T07:18:15.725Z,21.03
2019-04-05T07:20:47.718Z,21.26
2019-04-05T07:23:19.387Z,20.50
2019-04-05T07:25:50.911Z,19.77
2019-04-05T07:28:25.000Z,20.05
2019-04-05T07:30:55.736Z,20.05
2019-04-05T07:33:27.130Z,21.79
2019-04-05T07:35:59.411Z,20.49
2019-04-05T07:38:32.190Z,20.49
2019-04-05T07:41:06.931Z,20.63
2019-04-05T07:43:38.746Z,20.04
2019-04-05T07:46:10.853Z,20.09
2019-04-05T07:48:45.227Z,19.40
2019-04-05T07:51:16.036Z,19.40
2019-04-05T07:53:48.181Z,19.37
2019-04-05T07:56:21.579Z,19.37
2019-04-05T07:58:54.823Z,19.26
2019-04-05T08:01:33.843Z,18.43
2019-04-05T08:04:05.748Z,19.26
2019-04-05T08:06:40.578Z,19.26
2019-04-05T08:09:14.275Z,19.11
2019-04-05T08:11:50.146Z,17.66
2019-04-05T08:14:23.029Z,18.89
2019-04-05T08:16:54.602Z,18.41
2019-04-05T08:19:26.303Z,18.41
2019-04-05T08:21:57.878Z,17.92
2019-04-05T08:24:29.468Z,18.44
2019-04-05T08:27:01.095Z,18.08
2019-04-05T08:29:35.382Z,18.31
2019-04-05T08:32:14.384Z,18.31
2019-04-05T08:34:40.438Z,17.65
2019-04-05T08:37:12.260Z,18.57
2019-04-05T08:39:44.125Z,18.57
2019-04-05T08:42:15.964Z,19.99
2019-04-05T08:44:47.949Z,19.99
2019-04-05T08:47:22.311Z,18.65
2019-04-05T08:49:53.433Z,18.34
2019-04-05T08:52:27.005Z,19.09
2019-04-05T08:54:58.567Z,19.09
2019-04-05T08:57:30.097Z,18.45
2019-04-05T09:00:02.105Z,18.90
2019-04-05T09:02:33.802Z,18.90
2019-04-05T09:05:06.347Z,18.06
2019-04-05T09:07:37.898Z,18.25
2019-04-05T09:10:10.558Z,19.78
2019-04-05T09:12:42.147Z,17.50
2019-04-05T09:15:14.770Z,17.22
2019-04-05T09:17:46.271Z,17.69
2019-04-05T09:20:18.193Z,18.10
2019-04-05T09:22:49.957Z,17.67
2019-04-05T09:25:21.934Z,17.67
2019-04-05T09:27:53.573Z,17.30
2019-04-05T09:30:25.600Z,17.37
2019-04-05T09:32:57.451Z,17.04
2019-04-05T09:35:29.059Z,16.70
2019-04-05T09:38:00.490Z,16.70
2019-04-05T09:40:31.977Z,16.93
2019-04-05T09:43:03.762Z,18.00
2019-04-05T09:45:35.418Z,17.71
2019-04-05T09:48:06.787Z,17.38
2019-04-05T09:50:38.329Z,17.38
2019-04-05T09:53:10.083Z,19.02
2019-04-05T09:55:41.525Z,19.02
2019-04-05T09:58:13.968Z,18.00
2019-04-05T10:00:45.344Z,17.62
2019-04-05T10:03:17.933Z,17.62
2019-04-05T10:05:49.410Z,17.59
2019-04-05T10:08:22.677Z,17.18
2019-04-05T10:10:54.661Z,16.96
2019-04-05T10:13:26.502Z,16.89
2019-04-05T10:15:58.280Z,17.06
2019-04-05T10:18:33.194Z,17.18
2019-04-05T10:21:06.803Z,17.18
2019-04-05T10:23:38.361Z,16.62
2019-04-05T10:26:09.981Z,16.79
2019-04-05T10:28:41.496Z,16.95
2019-04-05T10:31:13.034Z,16.95
2019-04-05T10:33:44.865Z,17.39
2019-04-05T10:36:19.739Z,17.12
2019-04-05T10:38:50.006Z,17.16
2019-04-05T10:41:23.144Z,17.14
2019-04-05T10:43:55.004Z,17.20
2019-04-05T10:46:26.708Z,17.20
2019-04-05T10:48:58.578Z,16.62
2019-04-05T10:51:30.637Z,16.62
2019-04-05T10:54:04.298Z,17.41
2019-04-05T10:56:36.136Z,17.41
2019-04-05T10:59:09.107Z,17.10
2019-04-05T11:01:40.814Z,17.10
2019-04-05T11:04:12.323Z,17.51
2019-04-05T11:06:43.844Z,17.11
2019-04-05T11:09:15.823Z,17.09
2019-04-05T11:11:47.254Z,17.21
2019-04-05T11:14:19.258Z,17.21
2019-04-05T11:16:58.271Z,17.25
2019-04-05T11:19:24.293Z,17.65
2019-04-05T11:21:56.153Z,17.19
2019-04-05T11:24:27.841Z,17.19
2019-04-05T11:26:59.402Z,17.06
2019-04-05T11:29:31.234Z,17.06
2019-04-05T11:32:03.671Z,17.23
2019-04-05T11:34:35.291Z,16.85
2019-04-05T11:37:07.825Z,17.30
2019-04-05T11:39:39.699Z,17.30
2019-04-05T11:42:11.708Z,19.06
2019-04-05T11:44:46.966Z,21.28
2019-04-05T11:47:19.280Z,21.96
2019-04-05T11:49:55.096Z,22.32
2019-04-05T11:52:26.160Z,22.79
2019-04-05T11:54:57.801Z,23.14
2019-04-05T11:57:29.080Z,23.46
2019-04-05T12:00:00.683Z,23.72
2019-04-05T12:02:53.847Z,23.89
2019-04-05T12:05:27.159Z,23.82
2019-04-05T12:08:01.769Z,24.04
2019-04-05T12:10:32.226Z,24.34
2019-04-05T12:13:04.067Z,24.34
2019-04-05T12:15:36.384Z,24.63
2019-04-05T12:18:08.021Z,24.76
2019-04-05T12:20:49.406Z,24.76
2019-04-05T12:23:13.800Z,24.74
2019-04-05T12:25:45.664Z,24.98
2019-04-05T12:28:17.433Z,25.21
2019-04-05T12:30:50.148Z,25.16
2019-04-05T12:33:21.760Z,24.95
2019-04-05T12:35:56.436Z,25.13
2019-04-05T12:38:33.053Z,26.00
2019-04-05T12:41:05.553Z,27.49
2019-04-05T12:43:36.799Z,23.98
2019-04-05T12:46:08.310Z,23.98
2019-04-05T12:48:39.573Z,25.26
2019-04-05T12:51:13.185Z,24.39
2019-04-05T12:53:45.493Z,24.39
2019-04-05T12:56:16.778Z,24.08
2019-04-05T12:58:48.472Z,24.08
2019-04-05T13:01:20.176Z,24.21
2019-04-05T13:03:52.065Z,24.21
2019-04-05T13:06:23.485Z,24.16
2019-04-05T13:08:55.132Z,23.85
2019-04-05T13:11:27.751Z,23.71
2019-04-05T13:13:59.359Z,22.64
2019-04-05T13:16:30.505Z,22.12
2019-04-05T13:19:01.723Z,21.71
2019-04-05T13:21:33.258Z,21.39
2019-04-05T13:24:09.380Z,21.09
2019-04-05T13:26:41.665Z,19.12
2019-04-05T13:29:12.213Z,18.47
2019-04-05T13:31:43.699Z,19.13
2019-04-05T13:34:18.128Z,19.13
2019-04-05T13:36:48.936Z,19.24
2019-04-05T13:39:20.854Z,18.92
2019-04-05T13:41:52.525Z,19.48
2019-04-05T13:44:24.390Z,19.01
2019-04-05T13:46:56.365Z,18.94
2019-04-05T13:49:27.752Z,18.98
2019-04-05T13:51:59.652Z,17.94
2019-04-05T13:54:31.098Z,17.63
2019-04-05T13:57:02.840Z,17.36
2019-04-05T13:59:34.733Z,17.36
2019-04-05T14:02:06.906Z,17.58
2019-04-05T14:04:38.653Z,17.66
2019-04-05T14:07:10.113Z,17.36
2019-04-05T14:09:41.859Z,17.36
2019-04-05T14:12:13.490Z,17.81
2019-04-05T14:14:48.627Z,17.80
2019-04-05T14:17:18.287Z,17.94
2019-04-05T14:19:49.672Z,18.36
2019-04-05T14:22:22.508Z,18.36
2019-04-05T14:24:56.609Z,18.58
2019-04-05T14:27:27.926Z,18.65
2019-04-05T14:30:00.583Z,19.14
2019-04-05T14:32:33.222Z,19.85
2019-04-05T14:35:08.139Z,19.85
2019-04-05T14:37:40.208Z,19.92
2019-04-05T14:40:14.029Z,20.34
2019-04-05T14:42:46.195Z,20.63
2019-04-05T14:45:19.201Z,20.63
2019-04-05T14:47:50.975Z,20.98
2019-04-05T14:50:22.810Z,20.80
2019-04-05T14:52:54.777Z,21.18
2019-04-05T14:55:29.457Z,21.19
2019-04-05T14:58:00.096Z,21.06
2019-04-05T15:00:31.759Z,21.26
2019-04-05T15:03:06.050Z,21.79
2019-04-05T15:05:37.986Z,21.73
2019-04-05T15:08:09.562Z,22.16
2019-04-05T15:10:41.280Z,22.42
2019-04-05T15:13:13.234Z,22.42
2019-04-05T15:15:45.795Z,22.63
2019-04-05T15:18:19.530Z,22.63
2019-04-05T15:20:50.648Z,22.81
2019-04-05T15:23:22.410Z,22.71
2019-04-05T15:25:55.124Z,22.16
2019-04-05T15:28:27.094Z,22.26
2019-04-05T15:30:59.043Z,22.16
2019-04-05T15:33:30.759Z,22.16
2019-04-05T15:36:05.415Z,22.96
2019-04-05T15:38:37.079Z,22.43
2019-04-05T15:41:08.589Z,22.82
2019-04-05T15:43:40.154Z,22.66
2019-04-05T15:46:11.517Z,22.68
2019-04-05T15:48:43.112Z,22.68
2019-04-05T15:51:14.941Z,21.81
2019-04-05T15:53:46.333Z,21.81
2019-04-05T15:56:18.594Z,21.98
2019-04-05T15:58:52.293Z,21.98
2019-04-05T16:01:23.481Z,21.46
2019-04-05T16:03:55.143Z,21.93
2019-04-05T16:06:26.947Z,21.93
2019-04-05T16:08:58.614Z,21.79
2019-04-05T16:11:30.224Z,21.79
2019-04-05T16:14:02.809Z,22.21
2019-04-05T16:16:34.501Z,22.21
2019-04-05T16:19:06.498Z,22.01
2019-04-05T16:21:37.995Z,21.55
2019-04-05T16:24:09.561Z,21.65
2019-04-05T16:26:41.231Z,22.23
2019-04-05T16:29:12.938Z,22.50
2019-04-05T16:31:44.579Z,22.42
2019-04-05T16:34:16.119Z,22.29
2019-04-05T16:36:48.338Z,22.54
2019-04-05T16:39:22.357Z,22.42
2019-04-05T16:41:54.510Z,22.56
2019-04-05T16:44:26.401Z,22.56
2019-04-05T16:46:58.003Z,22.48
2019-04-05T16:49:30.178Z,23.03
2019-04-05T16:52:02.047Z,23.02
2019-04-05T16:54:33.866Z,23.16
2019-04-05T16:57:05.797Z,23.10
2019-04-05T16:59:37.616Z,22.94
2019-04-05T17:02:09.156Z,23.22
2019-04-05T17:04:42.236Z,23.52
2019-04-05T17:07:13.892Z,23.34
2019-04-05T17:09:46.509Z,23.34
2019-04-05T17:12:18.609Z,22.88
2019-04-05T17:14:49.915Z,23.48
2019-04-05T17:17:21.849Z,23.48
2019-04-05T17:19:53.830Z,23.30
2019-04-05T17:22:25.722Z,23.22
2019-04-05T17:24:57.199Z,23.54
2019-04-05T17:27:29.912Z,23.83
2019-04-05T17:30:01.649Z,23.83
2019-04-05T17:32:33.795Z,23.66
2019-04-05T17:35:05.873Z,23.92
2019-04-05T17:37:38.192Z,23.96
2019-04-05T17:40:11.403Z,23.96
2019-04-05T17:42:43.075Z,24.38
2019-04-05T17:45:14.936Z,25.03
2019-04-05T17:47:46.574Z,24.84
2019-04-05T17:50:31.685Z,24.84
2019-04-05T17:53:12.162Z,24.27
2019-04-05T17:55:37.522Z,24.53
2019-04-05T17:58:09.474Z,24.40
2019-04-05T18:00:41.238Z,23.85
2019-04-05T18:03:12.976Z,23.67
2019-04-05T18:05:44.756Z,23.58
2019-04-05T18:08:16.547Z,23.45
2019-04-05T18:10:48.166Z,23.41
2019-04-05T18:13:20.087Z,23.41
2019-04-05T18:15:52.941Z,23.88
2019-04-05T18:18:24.937Z,23.66
2019-04-05T18:20:56.451Z,23.74
2019-04-05T18:23:28.146Z,23.82
2019-04-05T18:25:59.940Z,24.37
2019-04-05T18:28:31.780Z,24.71
2019-04-05T18:31:03.309Z,24.52
2019-04-05T18:35:58.073Z,24.92
2019-04-05T18:38:29.564Z,24.92
2019-04-05T18:41:01.267Z,24.82
2019-04-05T18:43:32.937Z,25.17
2019-04-05T18:46:04.613Z,24.90
2019-04-05T18:48:39.020Z,25.24
2019-04-05T18:51:10.484Z,25.36
2019-04-05T18:53:42.433Z,25.90
2019-04-05T18:56:14.266Z,26.26
2019-04-05T18:58:48.946Z,26.85
2019-04-05T19:01:20.837Z,26.98
2019-04-05T19:03:52.449Z,27.27
2019-04-05T19:06:24.052Z,27.27
2019-04-05T19:08:55.771Z,27.68
2019-04-05T19:11:27.562Z,27.74
2019-04-05T19:14:01.232Z,28.21
2019-04-05T19:16:32.774Z,28.21
2019-04-05T19:19:04.480Z,27.69
2019-04-05T19:21:36.138Z,27.70
2019-04-05T19:24:10.657Z,27.73
2019-04-05T19:26:43.056Z,27.96
2019-04-05T19:29:14.672Z,28.39
2019-04-05T19:49:41.085Z,29.45
2019-04-05T19:52:12.714Z,29.61
2019-04-05T19:54:44.466Z,29.23
2019-04-05T19:57:16.115Z,29.25
2019-04-05T19:59:48.046Z,29.67
2019-04-05T20:02:19.750Z,29.67
2019-04-05T20:04:51.619Z,30.49
2019-04-05T20:07:23.063Z,30.39
2019-04-05T20:09:54.850Z,30.39
2019-04-05T20:12:26.549Z,30.54
2019-04-05T20:14:58.317Z,30.15
2019-04-05T20:17:29.658Z,29.32
2019-04-05T20:20:01.348Z,29.53
2019-04-05T20:22:32.920Z,29.53
2019-04-05T20:25:04.799Z,29.86
2019-04-05T20:27:36.632Z,29.32
2019-04-05T20:30:08.709Z,29.32
2019-04-05T20:32:40.394Z,29.28
2019-04-05T20:35:12.535Z,29.80
2019-04-05T20:37:44.341Z,29.47
2019-04-05T20:40:16.031Z,29.47
2019-04-05T20:42:47.611Z,30.20
2019-04-05T20:45:19.298Z,30.20
2019-04-05T20:47:50.766Z,29.27
2019-04-05T20:50:22.354Z,29.08
2019-04-05T20:52:53.758Z,29.13
2019-04-05T20:55:25.475Z,29.13
2019-04-05T20:57:56.823Z,28.99
2019-04-05T21:00:28.796Z,28.90
2019-04-05T21:03:00.198Z,29.16
2019-04-05T21:05:32.324Z,28.95
2019-04-05T21:08:03.712Z,28.87
2019-04-05T21:10:35.139Z,28.87
2019-04-05T21:13:07.750Z,29.10
2019-04-05T21:15:39.539Z,29.10
2019-04-05T21:18:11.119Z,29.06
2019-04-05T21:20:42.516Z,29.50
2019-04-05T21:23:14.128Z,29.33
2019-04-05T21:25:45.894Z,29.50
2019-04-05T21:28:17.682Z,29.50
2019-04-05T21:30:49.038Z,29.62
2019-04-05T21:33:20.734Z,29.26
2019-04-05T21:35:52.339Z,29.42
2019-04-05T21:38:23.939Z,29.21
2019-04-05T21:40:56.749Z,29.36
2019-04-05T21:43:28.413Z,29.45
2019-04-05T21:45:59.989Z,29.97
2019-04-05T21:48:31.570Z,29.97
2019-04-05T21:51:03.054Z,29.89
2019-04-05T21:53:34.831Z,30.36
2019-04-05T21:56:06.447Z,30.58
2019-04-05T21:58:38.069Z,31.01
2019-04-05T22:01:09.940Z,31.01
2019-04-05T22:03:43.458Z,30.46
2019-04-05T22:06:15.267Z,29.96
2019-04-05T22:08:47.202Z,30.36
2019-04-05T22:11:19.265Z,30.36
2019-04-05T22:13:51.188Z,30.61
2019-04-05T22:16:22.752Z,30.38
2019-04-05T22:18:54.430Z,30.68
2019-04-05T22:21:26.006Z,30.66
2019-04-05T22:23:58.143Z,30.93
2019-04-05T22:26:29.863Z,30.93
2019-04-05T22:29:01.561Z,30.78
2019-04-05T22:31:33.169Z,30.47
2019-04-05T22:34:05.080Z,30.88
2019-04-05T22:36:36.374Z,30.85
2019-04-05T22:39:09.274Z,30.85
2019-04-05T22:41:41.172Z,30.76
2019-04-05T22:44:13.385Z,31.03
2019-04-05T22:46:45.196Z,31.36
2019-04-05T22:49:16.771Z,31.22
2019-04-05T22:51:48.365Z,31.25
2019-04-05T22:54:20.000Z,31.31
2019-04-05T22:56:51.843Z,30.88
2019-04-05T22:59:23.418Z,31.08
2019-04-05T23:01:55.030Z,31.25
2019-04-05T23:04:26.634Z,31.54
2019-04-05T23:06:58.777Z,31.54
2019-04-05T23:09:30.383Z,31.74
2019-04-05T23:12:02.293Z,32.05
2019-04-05T23:14:33.863Z,32.05
2019-04-05T23:17:05.590Z,32.31
2019-04-05T23:19:37.482Z,32.34
2019-04-05T23:22:09.130Z,32.78
2019-04-05T23:24:40.684Z,32.53
2019-04-05T23:27:12.375Z,32.02
2019-04-05T23:29:43.800Z,32.05
2019-04-05T23:32:15.607Z,31.70
2019-04-05T23:34:47.214Z,31.70
2019-04-05T23:37:19.314Z,31.84
2019-04-05T23:39:50.754Z,31.68
2019-04-05T23:42:22.266Z,31.79
2019-04-05T23:44:53.779Z,31.68
2019-04-05T23:47:25.421Z,31.78
2019-04-05T23:49:57.216Z,31.87
2019-04-05T23:52:28.723Z,31.81
2019-04-05T23:55:00.141Z,31.83
2019-04-05T23:57:31.846Z,31.98
